Terminal Aerodrome Forecast
Issued by NWS

Home | Current Version | Previous Version | Text Only | Print | Product List | Glossary Off
Versions: 1 2 3 4 5 6 7 8 9 10 11 12 13 14 15 16 17 18 19 20 21 22

000
FTUS43 KOAX 241130
TAFCDR
TAF
KCDR 241130Z 2412/2512 28015KT P6SM SCT250
     FM241800 28012KT P6SM BKN070
     FM250800 30007KT 5SM -SN BKN040 OVC080=

USA.gov is the U.S. government's official web portal to all federal, state and local government web resources and services.